Time;durP1;ratioP1;P1;durP2;ratioP2;P2;SDS_P1;SDS_P2;PMS_P1;PMS_P2;Temp;Humidity;BMP_temperature;BMP_pressure;BME280_temperature;BME280_humidity;BME280_pressure;Samples;Min_cycle;Max_cycle;Signal;HPM_P1;HPM_P2
2022/05/09 00:02:07;;;;;;;5.88;4.30;;;;;;;16.80;55.05;98670.28;10540723;28;19919;-86
2022/05/09 00:07:27;;;;;;;7.53;4.90;;;;;;;16.86;55.03;98678.34;10554659;28;20039;-85
2022/05/09 00:12:48;;;;;;;7.38;4.95;;;;;;;16.84;55.08;98673.34;10554452;28;20486;-85
2022/05/09 00:18:09;;;;;;;9.00;4.95;;;;;;;16.79;55.31;98674.47;10540282;28;20039;-85
2022/05/09 00:23:30;;;;;;;6.75;5.18;;;;;;;16.73;55.33;98674.09;10539996;28;20063;-86
2022/05/09 00:28:50;;;;;;;8.15;5.35;;;;;;;16.67;55.26;98667.34;10525820;28;20477;-86
2022/05/09 00:34:11;;;;;;;8.50;5.45;;;;;;;16.57;55.60;98662.56;10553290;28;20040;-86
2022/05/09 00:39:33;;;;;;;6.43;5.07;;;;;;;16.54;55.86;98666.63;10539589;28;20040;-86
2022/05/09 00:44:54;;;;;;;6.68;4.60;;;;;;;16.48;55.95;98660.63;10553102;28;20423;-86
2022/05/09 00:50:21;;;;;;;9.50;5.80;;;;;;;16.40;56.24;98668.59;10552830;28;20073;-87
2022/05/09 00:55:45;;;;;;;6.75;5.40;;;;;;;16.24;56.23;98668.38;10539159;28;20043;-86
2022/05/09 01:01:07;;;;;;;;;;;;;;;16.10;56.94;98664.69;10525539;28;20036;-86
2022/05/09 01:06:27;;;;;;;8.02;5.53;;;;;;;15.92;56.62;98661.53;10552576;28;19920;-85
2022/05/09 01:11:48;;;;;;;9.25;5.50;;;;;;;15.86;56.87;98660.41;10538487;28;20047;-85
2022/05/09 01:17:09;;;;;;;6.90;5.25;;;;;;;15.76;56.98;98654.16;10552390;28;20043;-84
2022/05/09 01:22:34;;;;;;;7.78;4.88;;;;;;;15.68;57.04;98648.78;10538524;28;20069;-84
2022/05/09 01:27:55;;;;;;;9.70;5.07;;;;;;;15.56;57.46;98654.34;10552990;28;20047;-84
2022/05/09 01:33:34;;;;;;;7.80;5.30;;;;;;;15.59;57.52;98655.22;10566412;28;20036;-86
2022/05/09 01:38:58;;;;;;;8.00;5.30;;;;;;;15.59;57.28;98658.75;10538295;28;20044;-84
2022/05/09 01:44:19;;;;;;;6.10;4.78;;;;;;;15.54;57.38;98661.91;10552295;28;20035;-85
2022/05/09 01:49:40;;;;;;;8.00;5.80;;;;;;;15.46;57.64;98659.34;10551915;28;20067;-83
2022/05/09 01:55:19;;;;;;;7.50;5.35;;;;;;;15.42;57.68;98662.63;10257490;23;20493;-83
2022/05/09 02:00:59;;;;;;;7.25;5.32;;;;;;;15.35;57.70;98668.50;10217840;23;20066;-83
2022/05/09 02:06:40;;;;;;;9.07;5.30;;;;;;;15.26;57.84;98660.88;10393886;23;20061;-82
2022/05/09 02:12:13;;;;;;;8.40;5.28;;;;;;;15.15;57.76;98660.22;10333172;23;20058;-80
2022/05/09 02:18:02;;;;;;;7.75;5.53;;;;;;;15.03;57.87;98672.75;10283243;28;20050;-80
2022/05/09 02:23:23;;;;;;;9.40;5.88;;;;;;;14.89;57.98;98675.41;10271935;28;20039;-80
2022/05/09 02:35:33;;;;;;;10.38;5.60;;;;;;;14.68;58.57;98678.22;10209273;24;20049;-80
2022/05/09 02:41:06;;;;;;;6.55;4.82;;;;;;;14.60;58.80;98687.56;9984929;24;20047;-79
2022/05/09 02:46:27;;;;;;;10.77;4.75;;;;;;;14.52;58.97;98695.44;9912809;29;20051;-78
2022/05/09 02:51:56;;;;;;;8.75;5.05;;;;;;;14.39;58.81;98690.34;9966010;29;20050;-78
2022/05/09 02:57:19;;;;;;;9.15;4.88;;;;;;;14.28;58.98;98702.19;9968899;29;20111;-78
2022/05/09 03:08:59;;;;;;;8.38;5.07;;;;;;;14.18;59.40;98696.63;11362821;24;20061;-79
2022/05/09 04:12:48;;;;;;;7.68;4.80;;;;;;;14.24;60.18;98744.03;11404054;23;20068;-79
2022/05/09 04:18:09;;;;;;;7.95;5.05;;;;;;;14.33;59.89;98746.06;10121416;29;20059;-78
2022/05/09 04:23:30;;;;;;;8.05;4.35;;;;;;;14.51;59.77;98747.34;10117840;29;20041;-78
2022/05/09 04:28:50;;;;;;;5.32;4.45;;;;;;;14.70;59.54;98748.59;10100776;29;20431;-78
2022/05/09 04:34:11;;;;;;;7.55;4.78;;;;;;;14.89;59.25;98754.09;10104912;29;20045;-78
2022/05/09 04:39:33;;;;;;;6.55;4.43;;;;;;;15.11;59.12;98749.94;10085606;29;20055;-79
2022/05/09 04:44:54;;;;;;;9.27;4.28;;;;;;;15.31;58.81;98758.22;10073240;29;20488;-76
2022/05/09 04:50:25;;;;;;;5.50;4.47;;;;;;;15.54;58.41;98757.59;10071273;29;20044;-77
2022/05/09 04:55:46;;;;;;;8.98;4.93;;;;;;;15.78;57.76;98755.63;10018706;29;20049;-77
2022/05/09 05:01:07;;;;;;;7.80;4.35;;;;;;;16.07;57.57;98760.94;10056920;29;20474;-78
2022/05/09 05:06:28;;;;;;;6.63;4.68;;;;;;;16.41;56.77;98760.25;10031482;29;20484;-76
2022/05/09 05:11:50;;;;;;;10.98;4.25;;;;;;;16.77;56.38;98761.00;10032798;29;20113;-80
2022/05/09 05:17:11;;;;;;;5.38;3.60;;;;;;;17.25;55.70;98768.00;10031791;29;20060;-77
2022/05/09 05:22:34;;;;;;;7.55;3.90;;;;;;;17.74;53.99;98780.00;10032131;29;20049;-77
2022/05/09 05:27:56;;;;;;;6.03;4.03;;;;;;;18.24;52.37;98775.66;10018592;29;20053;-78
2022/05/09 05:33:17;;;;;;;5.93;3.50;;;;;;;19.39;52.18;98785.81;10043858;29;20042;-79
2022/05/09 05:38:39;;;;;;;5.93;3.40;;;;;;;20.61;49.83;98782.34;10047921;29;20049;-77
2022/05/09 05:43:59;;;;;;;5.18;3.28;;;;;;;21.94;49.12;98781.56;10051140;29;20056;-87
2022/05/09 05:49:21;;;;;;;5.15;2.88;;;;;;;23.15;45.50;98792.44;10039413;29;20045;-87
2022/05/09 05:54:43;;;;;;;9.60;3.42;;;;;;;24.25;44.51;98805.28;10039164;29;20041;-83
2022/05/09 06:00:18;;;;;;;7.47;2.80;;;;;;;25.63;35.30;98796.22;10038882;29;20057;-84
2022/05/09 06:05:39;;;;;;;3.33;1.83;;;;;;;27.12;39.64;98808.06;10038858;29;20049;-81
2022/05/09 06:11:01;;;;;;;3.40;1.97;;;;;;;28.42;34.63;98804.47;10038339;29;20061;-82
2022/05/09 06:16:21;;;;;;;2.75;2.00;;;;;;;29.95;31.46;98808.97;10038065;29;20053;-80
2022/05/09 06:21:43;;;;;;;3.47;2.08;;;;;;;31.84;28.51;98813.25;10025356;29;20049;-78
2022/05/09 06:27:04;;;;;;;4.13;1.77;;;;;;;33.98;24.79;98814.47;10022697;29;20064;-80
2022/05/09 06:32:25;;;;;;;2.85;1.83;;;;;;;34.86;20.99;98823.66;10041244;29;20072;-81
2022/05/09 06:37:54;;;;;;;4.80;2.38;;;;;;;36.63;17.47;98823.69;10024760;29;20063;-80
2022/05/09 06:43:16;;;;;;;6.13;1.95;;;;;;;39.10;15.52;98826.31;10024874;29;20056;-80
2022/05/09 06:48:38;;;;;;;5.28;1.67;;;;;;;40.84;13.80;98831.38;10023706;29;20042;-80
2022/05/09 06:54:01;;;;;;;6.25;2.20;;;;;;;42.08;13.29;98828.66;10011758;29;20046;-81
2022/05/09 06:59:22;;;;;;;6.43;1.85;;;;;;;42.30;11.73;98830.63;10037344;29;20042;-81
2022/05/09 07:04:43;;;;;;;4.43;1.90;;;;;;;42.12;11.71;98830.72;10023222;29;20061;-81
2022/05/09 07:10:04;;;;;;;7.35;2.30;;;;;;;44.29;10.49;98828.50;10023820;29;20046;-79
2022/05/09 07:15:31;;;;;;;5.78;1.70;;;;;;;44.77;9.70;98830.38;10025063;29;20404;-78
2022/05/09 07:20:53;;;;;;;4.40;1.52;;;;;;;45.00;9.49;98829.88;10035756;29;20073;-80
2022/05/09 07:26:14;;;;;;;7.55;1.90;;;;;;;44.49;9.62;98832.59;10036065;29;20046;-80
2022/05/09 07:31:40;;;;;;;6.07;2.10;;;;;;;44.88;8.97;98825.34;10024111;29;20484;-79
2022/05/09 07:37:01;;;;;;;4.75;1.90;;;;;;;43.82;9.59;98821.34;10023162;29;20061;-78
2022/05/09 07:42:23;;;;;;;2.78;1.77;;;;;;;42.84;10.23;98823.09;10035322;29;20053;-76
2022/05/09 07:47:45;;;;;;;3.50;1.92;;;;;;;41.44;11.34;98829.84;10044606;29;20066;-78
2022/05/09 07:53:11;;;;;;;3.85;1.75;;;;;;;40.95;11.02;98828.81;10053600;29;20093;-75
2022/05/09 07:58:33;;;;;;;4.18;2.00;;;;;;;38.19;13.13;98827.38;10034894;29;20042;-81
2022/05/09 08:03:57;;;;;;;4.53;2.17;;;;;;;37.21;13.66;98823.22;10034227;29;20060;-79
2022/05/09 08:09:18;;;;;;;5.43;1.55;;;;;;;38.53;13.81;98825.75;10035136;29;20042;-79
2022/05/09 08:14:39;;;;;;;4.78;1.35;;;;;;;42.69;11.43;98817.19;10021735;29;20105;-78
2022/05/09 08:20:00;;;;;;;6.45;1.40;;;;;;;46.39;9.61;98819.59;10021967;29;20124;-80
2022/05/09 08:25:21;;;;;;;2.30;1.10;;;;;;;49.26;7.71;98823.97;10009377;29;20053;-78
2022/05/09 08:30:51;;;;;;;3.88;0.85;;;;;;;50.37;5.93;98822.97;10021183;29;20049;-78
2022/05/09 08:42:05;;;;;;;4.15;0.90;;;;;;;50.66;5.14;98821.44;10038338;29;20053;-80
2022/05/09 08:47:49;;;;;;;2.15;1.05;;;;;;;48.21;6.02;98817.41;10033279;29;20060;-80
2022/05/09 08:53:19;;;;;;;2.40;0.80;;;;;;;49.65;5.79;98812.22;10058255;29;20404;-81
2022/05/09 08:59:01;;;;;;;3.53;1.00;;;;;;;49.78;5.48;98816.38;10034150;29;20128;-80
2022/05/09 09:04:31;;;;;;;3.75;1.20;;;;;;;51.01;5.46;98809.75;10044956;29;20046;-80
2022/05/09 09:10:24;;;;;;;3.92;0.98;;;;;;;51.83;5.11;98809.66;10021203;29;20052;-83
2022/05/09 09:16:12;;;;;;;2.38;1.05;;;;;;;51.07;4.77;98807.03;10019985;29;20061;-81
2022/05/09 09:22:03;;;;;;;3.67;1.10;;;;;;;51.14;4.86;98819.09;10018063;29;20049;-79
2022/05/09 09:28:15;;;;;;;2.95;1.00;;;;;;;50.94;4.80;98813.22;10036346;29;20054;-79
2022/05/09 09:33:41;;;;;;;2.50;1.20;;;;;;;50.76;4.71;98805.09;10044677;29;20052;-81
2022/05/09 09:39:26;;;;;;;4.30;1.10;;;;;;;50.71;4.76;98815.91;10043039;29;20058;-78
2022/05/09 09:44:51;;;;;;;3.00;0.80;;;;;;;45.46;6.00;98805.94;10021429;29;20141;-81
2022/05/09 09:50:21;;;;;;;5.53;0.85;;;;;;;39.06;10.56;98791.41;10032050;29;20042;-85
2022/05/09 09:55:42;;;;;;;3.65;0.70;;;;;;;45.93;7.96;98800.22;10031718;29;20389;-80
2022/05/09 10:01:14;;;;;;;3.53;0.90;;;;;;;39.35;10.67;98791.94;10020134;29;20049;-82
2022/05/09 10:06:59;;;;;;;3.90;1.25;;;;;;;35.79;13.45;98786.00;10018774;29;20050;-84
2022/05/09 10:12:26;;;;;;;2.72;0.90;;;;;;;39.88;12.39;98778.53;10043958;29;20049;-85
2022/05/09 10:17:50;;;;;;;1.63;0.70;;;;;;;45.76;8.90;98776.22;10005861;29;20050;-80
2022/05/09 10:28:59;;;;;;;3.97;1.10;;;;;;;42.57;9.00;98779.59;10025911;29;20054;-83
2022/05/09 10:34:27;;;;;;;2.15;1.05;;;;;;;46.46;7.86;98770.47;10013227;29;20181;-82
2022/05/09 10:40:02;;;;;;;3.73;0.90;;;;;;;48.58;6.44;98768.88;10025312;29;20049;-81
2022/05/09 10:45:33;;;;;;;4.40;0.90;;;;;;;47.84;6.27;98754.81;10001013;29;20056;-81
2022/05/09 10:51:10;;;;;;;2.17;0.70;;;;;;;44.88;7.33;98753.97;10020265;29;20648;-82
2022/05/09 10:57:04;;;;;;;5.00;1.10;;;;;;;37.50;11.16;98753.41;10011098;29;20212;-84
2022/05/09 11:02:33;;;;;;;2.60;1.10;;;;;;;36.34;13.19;98742.13;10009506;29;20049;-81
2022/05/09 11:08:16;;;;;;;3.33;1.20;;;;;;;35.31;13.96;98744.69;10002037;29;20054;-85
2022/05/09 11:14:09;;;;;;;2.83;1.20;;;;;;;34.14;14.71;98736.09;10019572;29;20448;-82
2022/05/09 11:19:59;;;;;;;2.83;1.30;;;;;;;32.29;15.88;98726.53;10056815;29;20045;-79
2022/05/09 11:25:26;;;;;;;4.25;1.60;;;;;;;30.94;17.43;98713.66;10023316;29;20138;-77
2022/05/09 11:30:48;;;;;;;2.95;1.08;;;;;;;30.27;17.98;98719.19;10032672;29;20424;-78
2022/05/09 11:36:32;;;;;;;3.33;1.40;;;;;;;31.19;17.54;98702.88;10043125;29;20109;-77
2022/05/09 11:48:19;;;;;;;3.55;1.20;;;;;;;30.30;18.60;98709.13;10035944;29;20081;-77
2022/05/09 11:53:42;;;;;;;6.88;1.70;;;;;;;29.46;19.75;98705.72;10056822;29;20045;-77
2022/05/09 11:59:04;;;;;;;6.38;1.45;;;;;;;29.19;20.58;98701.91;10031563;29;20052;-77
2022/05/09 12:04:34;;;;;;;3.25;1.60;;;;;;;29.34;20.51;98694.16;10031874;29;20136;-80
2022/05/09 12:10:00;;;;;;;2.88;1.40;;;;;;;29.25;20.85;98695.50;10053989;29;20048;-77
2022/05/09 12:15:24;;;;;;;5.68;1.55;;;;;;;29.01;21.01;98693.84;10032875;29;20057;-78
2022/05/09 12:20:48;;;;;;;3.55;1.88;;;;;;;28.87;21.24;98684.38;10026668;29;20050;-80
2022/05/09 12:26:10;;;;;;;4.90;1.88;;;;;;;28.57;21.50;98676.13;10026186;29;20051;-80
2022/05/09 12:31:37;;;;;;;3.38;1.77;;;;;;;27.59;22.06;98669.13;10001007;29;20046;-80
2022/05/09 12:37:01;;;;;;;5.63;1.80;;;;;;;27.77;22.54;98663.66;10024834;29;20136;-80
2022/05/09 12:42:23;;;;;;;2.75;1.45;;;;;;;27.90;22.31;98664.59;10000359;29;20062;-80
2022/05/09 12:47:44;;;;;;;7.03;1.40;;;;;;;27.39;22.51;98663.81;10023151;29;20095;-81
2022/05/09 12:53:10;;;;;;;3.63;1.35;;;;;;;26.65;23.01;98644.69;10012555;29;20058;-80
2022/05/09 12:58:36;;;;;;;2.40;1.10;;;;;;;26.59;23.69;98653.16;9982177;29;20053;-79
2022/05/09 13:04:04;;;;;;;2.97;1.20;;;;;;;26.85;23.47;98640.72;9994618;29;20290;-79
2022/05/09 13:09:32;;;;;;;4.60;0.80;;;;;;;27.30;23.36;98633.56;10007153;29;20473;-79
2022/05/09 13:14:57;;;;;;;3.05;0.90;;;;;;;27.36;23.29;98630.81;9981840;29;20061;-79
2022/05/09 13:20:20;;;;;;;2.95;1.00;;;;;;;27.40;23.37;98630.84;9994711;29;20053;-82
2022/05/09 13:25:50;;;;;;;6.25;1.10;;;;;;;27.59;22.82;98626.84;9994440;29;20061;-81
2022/05/09 13:31:11;;;;;;;3.80;1.35;;;;;;;27.12;23.14;98618.97;9993927;29;20481;-79
2022/05/09 13:36:35;;;;;;;1.90;0.90;;;;;;;26.98;23.24;98610.84;9981487;29;20046;-80
2022/05/09 13:41:59;;;;;;;2.45;0.95;;;;;;;26.86;23.09;98614.25;9980773;29;20286;-79
2022/05/09 13:47:21;;;;;;;2.88;0.90;;;;;;;26.80;22.88;98596.94;10011664;29;20045;-75
2022/05/09 13:52:46;;;;;;;;;;;;;;;26.82;23.01;98594.13;10031345;29;20045;-75
2022/05/09 13:58:07;;;;;;;1.98;0.80;;;;;;;27.02;22.83;98600.22;10031919;29;19928;-80
2022/05/09 14:03:36;;;;;;;3.08;0.63;;;;;;;26.97;22.65;98595.09;10027832;29;20049;-77
2022/05/09 14:09:03;;;;;;;2.60;0.70;;;;;;;26.92;22.24;98588.56;10077615;29;20056;-78
2022/05/09 14:14:34;;;;;;;2.30;0.73;;;;;;;26.69;22.23;98581.03;10063876;29;20090;-75
2022/05/09 14:19:58;;;;;;;1.83;0.70;;;;;;;26.65;22.43;98578.09;10076432;29;20120;-76
2022/05/09 14:30:58;;;;;;;3.70;0.73;;;;;;;25.67;22.51;98559.78;10080682;29;20048;-76
2022/05/09 14:36:33;;;;;;;3.30;0.95;;;;;;;25.82;22.78;98565.78;10062683;29;20135;-75
2022/05/09 14:42:15;;;;;;;2.45;1.05;;;;;;;25.75;22.49;98550.66;10047181;29;20045;-76
2022/05/09 14:47:49;;;;;;;2.40;0.65;;;;;;;25.91;22.57;98550.97;10016879;29;20061;-76
2022/05/09 14:53:22;;;;;;;3.40;2.03;;;;;;;26.07;22.42;98558.44;9999334;29;20433;-76
2022/05/09 14:58:47;;;;;;;;;;;;;;;25.91;21.79;98550.97;10000618;29;20050;-79
2022/05/09 15:04:08;;;;;;;1.80;0.60;;;;;;;25.79;21.94;98542.16;9983367;29;19931;-77
2022/05/09 15:09:29;;;;;;;2.10;0.60;;;;;;;25.60;22.22;98540.31;10010466;29;20378;-79
2022/05/09 15:14:50;;;;;;;3.10;0.98;;;;;;;25.50;22.74;98537.25;10010640;29;20497;-80
2022/05/09 15:20:11;;;;;;;3.50;0.90;;;;;;;25.53;22.63;98530.88;9985765;29;20049;-75
2022/05/09 15:25:32;;;;;;;2.05;0.80;;;;;;;25.37;22.83;98528.41;10010380;29;20049;-75
2022/05/09 15:30:53;;;;;;;3.22;0.93;;;;;;;24.73;22.91;98519.81;9984729;29;20426;-79
2022/05/09 15:36:14;;;;;;;2.33;0.85;;;;;;;24.43;23.65;98527.63;9984856;29;20050;-81
2022/05/09 15:41:37;;;;;;;3.72;0.88;;;;;;;24.24;23.77;98518.59;9984830;29;20062;-78
2022/05/09 15:46:58;;;;;;;2.25;0.90;;;;;;;24.16;24.03;98518.38;9997381;29;20057;-81
2022/05/09 15:52:20;;;;;;;2.05;0.82;;;;;;;24.01;24.19;98507.97;9984232;29;20060;-77
2022/05/09 15:57:41;;;;;;;3.28;0.60;;;;;;;24.01;25.04;98502.28;9996242;29;20046;-80
2022/05/09 16:03:02;;;;;;;2.25;0.98;;;;;;;24.11;24.94;98505.38;9983956;29;20539;-81
2022/05/09 16:14:03;;;;;;;2.85;0.90;;;;;;;24.25;24.99;98502.91;10000833;29;20061;-81
2022/05/09 16:19:28;;;;;;;3.22;1.55;;;;;;;24.28;25.18;98495.84;10008685;29;20045;-81
2022/05/09 16:24:49;;;;;;;1.67;0.88;;;;;;;24.14;25.21;98491.94;10007462;29;20401;-76
2022/05/09 16:30:22;;;;;;;2.15;0.88;;;;;;;23.96;25.48;98495.03;9995675;29;20400;-77
2022/05/09 16:35:43;;;;;;;2.97;1.20;;;;;;;23.92;25.40;98486.34;9996575;29;20085;-77
2022/05/09 16:41:07;;;;;;;3.35;1.20;;;;;;;23.81;25.38;98490.34;9983580;29;20053;-78
2022/05/09 16:46:28;;;;;;;3.40;0.90;;;;;;;23.70;25.70;98487.22;9995269;29;20401;-76
2022/05/09 16:51:50;;;;;;;3.03;1.00;;;;;;;23.50;25.83;98486.63;9995144;29;20373;-76
2022/05/09 16:57:30;;;;;;;1.92;1.00;;;;;;;23.44;26.58;98486.44;9996822;29;20050;-78
2022/05/09 17:02:51;;;;;;;2.38;1.00;;;;;;;23.38;26.35;98481.31;9981673;29;20481;-78
2022/05/09 17:08:12;;;;;;;3.63;0.90;;;;;;;23.24;26.58;98477.31;9981618;29;20054;-76
2022/05/09 17:13:33;;;;;;;1.73;1.05;;;;;;;23.15;26.81;98499.13;9994047;29;20404;-76
2022/05/09 17:18:54;;;;;;;2.72;1.20;;;;;;;23.05;26.89;98487.44;9994117;29;20049;-78
2022/05/09 17:24:15;;;;;;;3.40;1.05;;;;;;;22.96;27.01;98492.16;9993986;29;20046;-78
2022/05/09 17:29:36;;;;;;;4.63;1.30;;;;;;;22.93;27.49;98487.06;9981270;29;20112;-80
2022/05/09 17:34:57;;;;;;;4.05;1.52;;;;;;;22.83;27.42;98488.19;10006213;29;20073;-77
2022/05/09 17:40:19;;;;;;;5.22;1.73;;;;;;;22.69;27.58;98489.88;9981315;29;20049;-77
2022/05/09 17:46:04;;;;;;;3.95;1.70;;;;;;;22.56;28.82;98492.31;10006334;29;20046;-77
2022/05/09 17:51:27;;;;;;;4.00;1.63;;;;;;;22.47;28.45;98493.44;9965165;29;20101;-76
2022/05/09 17:57:14;;;;;;;6.05;1.73;;;;;;;22.31;28.64;98492.94;9939501;29;20053;-77
2022/05/09 18:02:34;;;;;;;6.50;2.75;;;;;;;22.15;28.80;98487.41;9927218;29;20059;-78
2022/05/09 18:07:55;;;;;;;6.50;1.95;;;;;;;22.00;29.04;98489.03;9927434;29;20071;-76
2022/05/09 18:13:17;;;;;;;3.83;2.00;;;;;;;21.86;29.14;98491.38;9926643;29;20059;-76
2022/05/09 18:18:46;;;;;;;4.63;2.10;;;;;;;21.73;29.55;98488.78;9930671;29;20054;-77
2022/05/09 18:24:13;;;;;;;5.43;1.70;;;;;;;21.54;29.47;98504.44;9964649;29;20054;-76
2022/05/09 18:29:34;;;;;;;4.50;1.80;;;;;;;21.39;30.08;98497.50;9952582;29;20490;-75
2022/05/09 18:34:59;;;;;;;5.00;1.88;;;;;;;21.23;30.54;98497.63;9992442;29;20050;-75
2022/05/09 18:40:25;;;;;;;4.72;1.67;;;;;;;21.07;30.39;98505.50;9981270;29;20058;-75
2022/05/09 18:45:46;;;;;;;7.47;1.48;;;;;;;20.94;30.71;98520.59;9981995;29;20058;-74
2022/05/09 18:56:50;;;;;;;4.20;1.75;;;;;;;20.64;31.67;98526.50;10004380;29;20124;-75
2022/05/09 19:02:12;;;;;;;6.55;1.25;;;;;;;20.50;31.78;98526.69;9986273;29;20458;-75
2022/05/09 19:07:34;;;;;;;5.72;1.50;;;;;;;20.38;32.04;98528.28;9998753;29;20054;-75
2022/05/09 19:12:58;;;;;;;3.05;1.45;;;;;;;20.26;32.57;98532.03;9986475;29;20053;-75
2022/05/09 19:18:20;;;;;;;5.50;1.92;;;;;;;20.15;32.98;98540.75;9985469;29;20094;-75
2022/05/09 19:23:40;;;;;;;4.60;1.77;;;;;;;20.01;33.66;98543.72;9997939;29;20057;-76
2022/05/09 19:29:03;;;;;;;6.75;1.85;;;;;;;19.93;33.87;98554.72;9984830;29;20076;-75
2022/05/09 19:34:30;;;;;;;3.97;1.90;;;;;;;19.79;35.20;98554.09;10010480;29;20111;-79
2022/05/09 19:39:52;;;;;;;6.38;1.80;;;;;;;19.62;34.61;98555.47;9985173;29;20062;-73
2022/05/09 19:45:27;;;;;;;5.70;1.60;;;;;;;19.52;35.11;98557.81;9997429;29;20046;-74
2022/05/09 19:50:49;;;;;;;5.72;1.83;;;;;;;19.44;35.96;98546.84;10015197;29;20050;-74
2022/05/09 19:56:09;;;;;;;4.10;1.45;;;;;;;19.36;35.71;98557.81;10012772;29;20389;-74
2022/05/09 20:01:30;;;;;;;6.38;2.05;;;;;;;19.24;36.13;98560.81;10028064;29;20049;-74
2022/05/09 20:06:50;;;;;;;3.17;1.60;;;;;;;19.20;35.96;98559.88;10023266;29;20097;-74
2022/05/09 20:12:14;;;;;;;5.93;1.85;;;;;;;19.16;36.23;98568.91;10041744;29;20049;-74
2022/05/09 20:17:35;;;;;;;7.20;1.80;;;;;;;19.11;36.56;98572.94;10006851;29;20409;-73
2022/05/09 20:22:57;;;;;;;5.22;2.30;;;;;;;19.07;36.76;98573.47;10008491;29;20045;-74
2022/05/09 20:33:57;;;;;;;4.95;1.65;;;;;;;18.91;37.24;98571.94;10025230;29;20046;-73
2022/05/09 20:39:19;;;;;;;8.40;1.80;;;;;;;18.79;37.53;98574.94;10008155;29;20069;-73
2022/05/09 20:44:44;;;;;;;4.70;1.95;;;;;;;18.67;37.47;98583.56;10020554;29;20045;-74
2022/05/09 20:50:07;;;;;;;7.22;1.90;;;;;;;18.57;37.97;98585.84;9994981;29;20049;-73
2022/05/09 20:55:28;;;;;;;7.20;2.00;;;;;;;18.45;38.41;98591.66;9982531;29;20049;-74
2022/05/09 21:00:50;;;;;;;5.35;1.63;;;;;;;18.40;38.52;98583.59;10007933;29;20382;-74
2022/05/09 21:06:11;;;;;;;5.93;1.95;;;;;;;18.20;39.17;98584.03;9994758;29;20046;-74
2022/05/09 21:11:33;;;;;;;9.02;2.15;;;;;;;18.15;39.09;98587.28;9994035;29;20046;-74
2022/05/09 21:16:53;;;;;;;9.00;2.40;;;;;;;18.09;39.85;98582.03;9993653;29;20076;-74
2022/05/09 21:22:25;;;;;;;6.68;2.30;;;;;;;18.13;39.45;98590.00;10007663;29;20074;-73
2022/05/09 21:27:54;;;;;;;7.05;2.35;;;;;;;18.08;39.78;98583.41;9994586;29;20061;-73
2022/05/09 21:33:15;;;;;;;6.53;2.70;;;;;;;17.98;40.25;98583.63;10007662;29;20049;-74
2022/05/09 21:44:26;;;;;;;9.63;2.20;;;;;;;17.67;41.06;98581.28;10019256;29;20078;-74
2022/05/09 21:49:53;;;;;;;4.45;2.22;;;;;;;17.68;41.03;98584.84;9995404;29;20520;-75
2022/05/09 21:55:15;;;;;;;4.70;2.35;;;;;;;17.63;40.80;98580.31;10019808;29;20046;-74
2022/05/09 22:00:48;;;;;;;3.92;2.10;;;;;;;17.61;40.98;98583.75;10018871;29;20053;-75
2022/05/09 22:06:22;;;;;;;4.85;2.08;;;;;;;17.58;41.12;98584.28;10018658;29;20050;-74
2022/05/09 22:11:43;;;;;;;9.65;2.28;;;;;;;17.55;41.10;98574.97;10018972;29;20050;-74
2022/05/09 22:17:07;;;;;;;4.20;2.35;;;;;;;17.44;41.66;98578.59;10018724;29;20046;-75
2022/05/09 22:22:29;;;;;;;6.15;2.65;;;;;;;17.31;41.83;98568.75;10022779;29;20079;-73
2022/05/09 22:27:50;;;;;;;6.22;2.22;;;;;;;17.19;41.78;98570.94;10025597;29;20393;-73
2022/05/09 22:33:12;;;;;;;4.75;2.00;;;;;;;17.12;42.11;98569.13;10012686;29;20524;-74
2022/05/09 22:38:32;;;;;;;7.75;2.53;;;;;;;17.07;42.34;98564.59;10010003;29;20094;-74
2022/05/09 22:44:10;;;;;;;7.25;2.22;;;;;;;16.91;42.58;98549.63;10002166;29;20073;-74
2022/05/09 22:49:34;;;;;;;5.50;2.55;;;;;;;16.82;42.61;98560.44;10025016;29;20077;-74
2022/05/09 22:54:56;;;;;;;4.72;2.28;;;;;;;16.76;42.83;98550.91;10011903;29;20087;-74
2022/05/09 23:00:18;;;;;;;4.72;2.10;;;;;;;16.67;43.24;98544.03;10024490;29;20061;-74
2022/05/09 23:05:39;;;;;;;7.15;2.15;;;;;;;16.50;43.81;98541.66;10024011;29;20081;-74
2022/05/09 23:11:00;;;;;;;5.60;2.33;;;;;;;16.44;43.99;98544.16;10036968;29;20042;-75
2022/05/09 23:16:21;;;;;;;6.30;2.53;;;;;;;16.39;44.34;98539.63;10023521;29;20089;-74
2022/05/09 23:21:42;;;;;;;4.65;2.10;;;;;;;16.33;44.42;98533.66;10036105;29;20504;-75
2022/05/09 23:27:03;;;;;;;6.32;2.60;;;;;;;16.23;44.46;98523.25;10048869;29;20086;-75
2022/05/09 23:32:26;;;;;;;4.28;2.08;;;;;;;16.17;44.80;98516.53;10023759;29;20049;-73
2022/05/09 23:37:47;;;;;;;5.15;2.25;;;;;;;16.13;45.01;98517.03;10023028;29;20077;-74
2022/05/09 23:43:07;;;;;;;7.13;2.95;;;;;;;16.01;45.60;98521.94;10035346;29;20077;-73
2022/05/09 23:48:28;;;;;;;8.02;2.85;;;;;;;15.99;45.59;98513.38;10022571;29;20077;-74
2022/05/09 23:53:49;;;;;;;4.07;2.70;;;;;;;15.87;45.80;98507.06;10035209;29;20045;-74
2022/05/09 23:59:10;;;;;;;7.55;2.63;;;;;;;15.77;45.76;98503.63;10047653;29;20449;-74
